Time;durP1;ratioP1;P1;durP2;ratioP2;P2;SDS_P1;SDS_P2;PMS_P1;PMS_P2;Temp;Humidity;BMP_temperature;BMP_pressure;BME280_temperature;BME280_humidity;BME280_pressure;Samples;Min_cycle;Max_cycle;Signal;HPM_P1;HPM_P2
2021/01/05 00:02:06;;;;;;;3.67;1.90;;;;;;;11.45;62.11;92868.81;5030948;28;20025;-78
2021/01/05 00:04:35;;;;;;;1.27;1.10;;;;;;;11.41;62.38;92866.03;5025952;28;20036;-78
2021/01/05 00:07:03;;;;;;;1.88;1.77;;;;;;;11.39;63.27;92868.22;5046609;28;20071;-78
2021/01/05 00:09:28;;;;;;;2.78;2.47;;;;;;;11.40;63.76;92866.34;5047739;28;20040;-78
2021/01/05 00:12:10;;;;;;;3.72;1.10;;;;;;;11.39;63.79;92873.50;5044221;28;20033;-78
2021/01/05 00:14:40;;;;;;;1.10;0.70;;;;;;;11.36;63.34;92871.50;5033747;28;21144;-78
2021/01/05 00:17:06;;;;;;;4.25;0.80;;;;;;;11.41;64.03;92868.69;5047127;28;20599;-78
2021/01/05 00:19:32;;;;;;;1.15;0.88;;;;;;;11.34;63.36;92864.97;5048639;28;20059;-78
2021/01/05 00:21:57;;;;;;;6.85;3.03;;;;;;;11.25;63.96;92872.91;5045902;28;20073;-78
2021/01/05 00:24:23;;;;;;;1.17;1.00;;;;;;;11.12;64.10;92868.59;5045435;28;20090;-78
2021/01/05 00:26:48;;;;;;;2.17;1.77;;;;;;;11.03;63.02;92876.53;5047404;28;20576;-78
2021/01/05 00:29:14;;;;;;;5.35;2.47;;;;;;;11.04;63.28;92888.66;5046639;28;20327;-78
2021/01/05 00:31:40;;;;;;;3.83;2.17;;;;;;;11.00;63.68;92886.94;5047637;28;20048;-78
2021/01/05 00:34:06;;;;;;;3.15;2.38;;;;;;;11.01;64.56;92889.28;5006731;28;20529;-78
2021/01/05 00:36:32;;;;;;;4.47;2.42;;;;;;;10.99;64.71;92883.53;5040157;28;20043;-78
2021/01/05 00:38:58;;;;;;;3.75;1.95;;;;;;;11.02;64.42;92895.34;5048128;28;20040;-77
2021/01/05 00:41:24;;;;;;;3.92;2.25;;;;;;;10.96;63.89;92901.88;5049695;28;20045;-78
2021/01/05 00:43:49;;;;;;;6.25;2.10;;;;;;;10.96;64.39;92899.22;5046187;28;20047;-78
2021/01/05 00:46:17;;;;;;;3.38;1.98;;;;;;;10.92;64.37;92911.53;5050155;28;20052;-78
2021/01/05 00:48:43;;;;;;;3.38;2.33;;;;;;;10.89;64.91;92905.00;5035160;28;20037;-78
2021/01/05 00:51:13;;;;;;;4.43;1.65;;;;;;;10.92;64.27;92911.53;5049981;28;20033;-78
2021/01/05 00:53:39;;;;;;;2.50;1.70;;;;;;;10.88;64.63;92915.88;5049507;28;20047;-78
2021/01/05 00:56:05;;;;;;;4.13;2.88;;;;;;;10.91;65.13;92916.03;5052522;28;20028;-78
2021/01/05 00:58:31;;;;;;;4.10;3.28;;;;;;;10.77;65.23;92926.75;5054932;28;20036;-77
2021/01/05 01:00:56;;;;;;;4.93;3.33;;;;;;;10.79;65.41;92935.16;5051743;28;20049;-77
2021/01/05 01:03:23;;;;;;;3.78;3.08;;;;;;;10.84;65.81;92928.94;5027895;28;20029;-78
2021/01/05 01:05:49;;;;;;;5.97;3.13;;;;;;;10.85;66.13;92933.13;5028635;28;20051;-78
2021/01/05 01:08:15;;;;;;;4.25;2.92;;;;;;;10.84;66.56;92927.09;5034712;28;20404;-78
2021/01/05 01:10:41;;;;;;;8.80;4.03;;;;;;;10.82;66.51;92929.25;5040292;28;20043;-78
2021/01/05 01:13:07;;;;;;;5.43;3.78;;;;;;;10.81;66.00;92937.47;5046472;28;20416;-78
2021/01/05 01:15:33;;;;;;;2.03;1.60;;;;;;;10.81;64.66;92938.25;5050996;28;20110;-79
2021/01/05 01:17:58;;;;;;;4.85;4.40;;;;;;;10.83;64.80;92940.59;5049786;28;20044;-78
2021/01/05 01:20:24;;;;;;;4.93;3.05;;;;;;;10.72;65.56;92940.13;5030289;28;20041;-78
2021/01/05 01:22:49;;;;;;;6.95;3.50;;;;;;;10.75;65.97;92949.31;5047939;28;20058;-78
2021/01/05 01:25:15;;;;;;;4.97;3.10;;;;;;;10.76;66.85;92953.47;5053099;28;20017;-78
2021/01/05 01:27:40;;;;;;;2.83;1.50;;;;;;;10.66;65.39;92948.50;5049871;28;20036;-78
2021/01/05 01:30:08;;;;;;;2.47;1.75;;;;;;;10.71;65.50;92956.28;5049619;28;20052;-77
2021/01/05 01:32:33;;;;;;;7.30;2.40;;;;;;;10.76;65.42;92950.84;5026622;28;20048;-78
2021/01/05 01:34:59;;;;;;;4.65;3.13;;;;;;;10.85;65.55;92964.84;5029872;28;20470;-78
2021/01/05 01:37:25;;;;;;;7.82;3.90;;;;;;;10.88;65.80;92960.81;5030339;28;20021;-78
2021/01/05 01:39:50;;;;;;;7.97;2.97;;;;;;;10.93;66.19;92976.53;5044098;28;20648;-78
2021/01/05 01:42:18;;;;;;;3.05;2.47;;;;;;;10.95;65.91;92979.63;5038036;28;20036;-78
2021/01/05 01:44:45;;;;;;;3.38;2.80;;;;;;;10.95;65.69;92976.97;5027796;28;20053;-78
2021/01/05 01:47:25;;;;;;;4.90;3.67;;;;;;;11.01;66.46;92988.97;5032634;28;20117;-78
2021/01/05 01:50:04;;;;;;;12.00;5.60;;;;;;;10.99;66.02;92991.16;5030227;28;20036;-78
2021/01/05 01:52:55;;;;;;;8.13;4.05;;;;;;;11.00;65.82;92992.69;5048506;28;20036;-78
2021/01/05 01:55:49;;;;;;;2.88;2.10;;;;;;;10.89;65.40;92976.38;5030840;28;20422;-78
2021/01/05 01:58:33;;;;;;;2.25;2.03;;;;;;;10.95;65.13;92979.63;5032380;28;20040;-78
2021/01/05 02:01:23;;;;;;;1.67;1.38;;;;;;;11.00;65.10;92993.47;5030775;28;20565;-77
2021/01/05 02:03:58;;;;;;;3.30;1.50;;;;;;;10.99;65.13;92999.09;5030622;28;20029;-78
2021/01/05 02:06:27;;;;;;;9.10;3.55;;;;;;;10.95;65.06;92982.25;5030954;28;20048;-78
2021/01/05 02:09:25;;;;;;;1.30;1.20;;;;;;;10.98;64.94;93000.16;5027952;28;20044;-78
2021/01/05 02:12:15;;;;;;;1.20;1.10;;;;;;;10.91;64.50;92983.97;4999028;28;20065;-78
2021/01/05 02:15:03;;;;;;;2.28;1.02;;;;;;;10.79;64.60;93003.88;5033939;28;20109;-78
2021/01/05 02:17:57;;;;;;;28.08;12.60;;;;;;;10.78;64.14;93007.59;5046441;28;20083;-78
2021/01/05 02:20:30;;;;;;;7.18;3.75;;;;;;;10.81;63.79;93006.97;5037850;28;20117;-77
2021/01/05 02:23:28;;;;;;;2.53;1.60;;;;;;;10.82;64.46;93013.81;5031037;28;20087;-78
2021/01/05 02:26:11;;;;;;;1.77;1.40;;;;;;;10.73;65.39;92994.53;5052800;28;20036;-78
2021/01/05 02:28:44;;;;;;;3.40;3.20;;;;;;;10.74;64.71;93001.38;5049248;28;20482;-78
2021/01/05 02:31:31;;;;;;;1.50;1.40;;;;;;;10.76;64.38;92998.41;5049938;28;20342;-78
2021/01/05 02:34:05;;;;;;;1.60;1.38;;;;;;;10.74;63.72;93005.88;5047335;28;20110;-79
2021/01/05 02:37:07;;;;;;;1.50;1.20;;;;;;;10.80;62.97;93015.97;5047981;28;20501;-78
2021/01/05 02:39:59;;;;;;;1.88;1.52;;;;;;;10.79;63.18;93014.44;5038465;28;20266;-78
2021/01/05 02:42:52;;;;;;;1.30;1.10;;;;;;;10.77;64.04;93006.03;4999704;28;20101;-78
2021/01/05 02:45:27;;;;;;;1.38;1.20;;;;;;;10.72;62.40;93003.53;5051136;28;20123;-78
2021/01/05 02:48:07;;;;;;;1.50;1.40;;;;;;;10.75;61.87;93013.47;5047588;28;20036;-78
2021/01/05 02:51:02;;;;;;;1.40;1.13;;;;;;;10.73;62.06;93020.97;5050327;28;20044;-78
2021/01/05 02:53:52;;;;;;;4.72;2.17;;;;;;;10.70;61.14;93021.56;5047438;28;20041;-80
2021/01/05 02:56:36;;;;;;;2.50;1.58;;;;;;;10.65;59.98;93013.78;5051762;28;20048;-78
2021/01/05 02:59:13;;;;;;;1.38;1.10;;;;;;;10.64;60.55;93019.38;5032447;28;20036;-78
2021/01/05 03:02:18;;;;;;;5.80;3.42;;;;;;;10.71;61.85;93012.53;5051406;28;20032;-78
2021/01/05 03:04:44;;;;;;;2.38;1.95;;;;;;;10.73;62.00;93014.88;5028951;28;20048;-78
2021/01/05 03:07:16;;;;;;;30.40;16.00;;;;;;;10.71;61.91;93012.53;5049544;28;20404;-79
2021/01/05 03:09:42;;;;;;;1.48;1.38;;;;;;;10.62;60.90;93021.53;5034106;28;20044;-78
2021/01/05 03:12:43;;;;;;;1.25;1.15;;;;;;;10.73;60.69;93015.66;5030734;28;20098;-78
2021/01/05 03:15:30;;;;;;;1.20;1.10;;;;;;;10.75;60.93;93018.78;5043938;28;20044;-78
2021/01/05 03:18:16;;;;;;;3.50;1.52;;;;;;;10.79;61.96;93027.66;5049907;28;20079;-78
2021/01/05 03:20:47;;;;;;;5.10;2.92;;;;;;;10.82;61.52;93032.31;5045278;28;20090;-78
2021/01/05 03:23:14;;;;;;;6.53;2.70;;;;;;;10.88;61.18;93037.47;5032962;28;20665;-78
2021/01/05 03:25:43;;;;;;;2.65;2.22;;;;;;;10.84;60.48;93032.81;5035518;28;20039;-78
2021/01/05 03:28:12;;;;;;;1.67;1.40;;;;;;;10.84;60.42;93021.44;5049275;28;20055;-78
2021/01/05 03:30:42;;;;;;;7.50;3.72;;;;;;;10.86;60.50;93020.03;5048163;28;20057;-78
2021/01/05 03:33:08;;;;;;;1.98;1.60;;;;;;;10.90;60.77;93024.72;5044168;28;20118;-77
2021/01/05 03:35:34;;;;;;;1.67;1.55;;;;;;;10.76;60.37;93008.97;5047941;28;20182;-76
2021/01/05 03:37:59;;;;;;;2.28;1.65;;;;;;;10.73;59.69;93023.59;5046141;28;20448;-78
2021/01/05 03:40:26;;;;;;;1.92;1.77;;;;;;;10.83;58.20;93051.59;5034238;28;20021;-78
2021/01/05 03:42:51;;;;;;;1.52;1.30;;;;;;;10.79;55.86;93051.44;5045656;28;20037;-78
2021/01/05 03:45:26;;;;;;;2.65;1.75;;;;;;;10.82;56.00;93042.88;5051648;28;20070;-78
2021/01/05 03:47:52;;;;;;;2.17;1.98;;;;;;;10.72;55.64;93039.75;5046286;28;20516;-79
2021/01/05 03:50:18;;;;;;;1.83;1.73;;;;;;;10.79;55.83;93051.44;5049350;28;20048;-79
2021/01/05 03:52:44;;;;;;;5.03;2.50;;;;;;;10.64;56.15;93043.94;5030084;28;20095;-80
2021/01/05 03:55:12;;;;;;;2.85;2.40;;;;;;;10.73;56.33;93057.94;5048017;28;20029;-78
2021/01/05 03:57:38;;;;;;;3.17;2.88;;;;;;;10.68;56.63;93059.94;5045652;28;20509;-80
2021/01/05 04:00:08;;;;;;;4.55;2.70;;;;;;;10.68;56.37;93044.88;5047223;28;20325;-78
2021/01/05 04:02:34;;;;;;;3.38;2.90;;;;;;;10.67;56.08;93045.19;5042230;28;20412;-80
2021/01/05 04:04:59;;;;;;;3.55;3.17;;;;;;;10.73;56.09;93044.75;5048278;28;20013;-78
2021/01/05 04:07:25;;;;;;;4.38;3.75;;;;;;;10.71;55.58;93030.25;5049067;28;20044;-79
2021/01/05 04:09:50;;;;;;;3.95;3.65;;;;;;;10.80;55.97;93036.34;5046683;28;20521;-78
2021/01/05 04:12:16;;;;;;;3.40;3.10;;;;;;;10.83;56.06;93041.81;5047658;28;20493;-78
2021/01/05 04:14:41;;;;;;;3.83;3.53;;;;;;;10.80;55.70;93052.97;5046647;28;21385;-79
2021/01/05 04:17:07;;;;;;;5.43;4.13;;;;;;;10.71;55.34;93044.25;5047968;28;20067;-78
2021/01/05 04:19:33;;;;;;;4.72;3.88;;;;;;;10.71;55.15;93044.25;5049991;28;20020;-78
2021/01/05 04:21:58;;;;;;;4.07;3.60;;;;;;;10.62;55.33;93032.88;5045281;28;20044;-79
2021/01/05 04:24:24;;;;;;;4.88;3.80;;;;;;;10.79;56.15;93051.44;5051744;28;20497;-77
2021/01/05 04:26:49;;;;;;;7.30;4.25;;;;;;;10.85;56.50;93066.06;5049728;28;20059;-77
2021/01/05 04:29:15;;;;;;;5.70;3.85;;;;;;;10.83;56.25;93068.25;5051278;28;20041;-77
2021/01/05 04:31:42;;;;;;;7.03;3.90;;;;;;;10.83;55.78;93081.47;5050608;28;20044;-79
2021/01/05 04:34:08;;;;;;;11.60;6.78;;;;;;;10.70;55.73;93069.13;5051519;28;20417;-77
2021/01/05 04:36:34;;;;;;;10.57;6.78;;;;;;;10.76;55.84;93088.25;5052773;28;20085;-78
2021/01/05 04:39:00;;;;;;;13.20;6.88;;;;;;;10.78;56.58;93080.81;5050024;28;20530;-78
2021/01/05 04:41:27;;;;;;;15.27;7.57;;;;;;;10.82;55.65;93085.19;5048654;28;20056;-78
2021/01/05 04:44:01;;;;;;;16.80;6.85;;;;;;;10.81;54.71;93098.69;5036796;28;20024;-77
2021/01/05 04:46:40;;;;;;;3.92;3.53;;;;;;;10.78;53.26;93100.09;5050334;28;20051;-78
2021/01/05 04:49:19;;;;;;;16.42;7.22;;;;;;;10.94;54.07;93118.19;5052241;28;20040;-78
2021/01/05 04:52:04;;;;;;;7.15;4.78;;;;;;;10.92;53.79;93117.69;5047876;28;20441;-79
2021/01/05 04:54:31;;;;;;;;;;;;;;;10.85;53.35;93118.91;5035604;28;20036;-78
2021/01/05 04:57:18;;;;;;;9.82;5.60;;;;;;;10.88;54.18;93132.63;5029390;28;20105;-78
2021/01/05 04:59:52;;;;;;;9.18;4.55;;;;;;;10.88;53.52;93133.41;5027495;28;20068;-79
2021/01/05 05:02:28;;;;;;;10.00;5.88;;;;;;;10.91;54.05;93137.28;5036417;28;20043;-78
2021/01/05 05:05:16;;;;;;;9.20;5.45;;;;;;;10.90;53.49;93141.03;5032744;28;20024;-79
2021/01/05 05:08:13;;;;;;;12.30;6.03;;;;;;;10.94;54.17;93141.97;5048400;28;20212;-77
2021/01/05 05:10:46;;;;;;;12.55;5.15;;;;;;;10.88;53.90;93149.25;5038628;28;20048;-78
2021/01/05 05:13:28;;;;;;;2.70;2.50;;;;;;;10.88;53.36;93148.47;5052114;28;20037;-78
2021/01/05 05:16:06;;;;;;;2.58;2.38;;;;;;;10.82;52.85;93150.47;5030309;28;20114;-77
2021/01/05 05:18:55;;;;;;;2.90;2.45;;;;;;;10.86;53.74;93162.78;5050381;28;20087;-78
2021/01/05 05:21:32;;;;;;;5.70;3.95;;;;;;;10.84;54.01;93169.47;5052607;28;20041;-78
2021/01/05 05:24:16;;;;;;;2.55;2.28;;;;;;;10.77;52.96;93175.16;5049413;28;20048;-78
2021/01/05 05:26:57;;;;;;;3.67;2.75;;;;;;;10.88;53.32;93180.97;5050061;28;20484;-78
2021/01/05 05:29:50;;;;;;;5.22;3.58;;;;;;;10.87;54.12;93189.97;5051380;28;20124;-78
2021/01/05 05:32:22;;;;;;;4.15;2.90;;;;;;;10.81;53.99;93180.63;5051523;28;20045;-79
2021/01/05 05:34:56;;;;;;;7.05;3.50;;;;;;;10.79;53.46;93178.31;5049039;28;20028;-78
2021/01/05 05:37:49;;;;;;;8.23;4.60;;;;;;;10.89;53.87;93187.81;5050722;28;20159;-78
2021/01/05 05:40:18;;;;;;;3.28;2.45;;;;;;;10.82;53.62;93190.91;5050169;28;20049;-79
2021/01/05 05:43:05;;;;;;;5.38;3.13;;;;;;;10.86;53.70;93197.13;5051055;28;20070;-82
2021/01/05 05:46:06;;;;;;;9.27;4.78;;;;;;;10.78;53.60;93202.38;5047725;28;20040;-81
2021/01/05 05:49:05;;;;;;;5.38;3.47;;;;;;;10.82;53.36;93196.19;5036464;28;20146;-77
2021/01/05 05:51:42;;;;;;;5.35;3.20;;;;;;;10.91;53.02;93208.66;5047732;28;20048;-78
2021/01/05 05:54:14;;;;;;;3.30;2.70;;;;;;;10.86;53.02;93220.91;5048078;28;20436;-79
2021/01/05 05:57:16;;;;;;;6.38;3.88;;;;;;;10.79;53.14;93220.59;5045093;28;20123;-79
2021/01/05 05:59:51;;;;;;;5.03;3.00;;;;;;;10.77;53.25;93230.66;5046339;28;20141;-80
2021/01/05 06:02:20;;;;;;;4.53;3.80;;;;;;;10.80;53.29;93231.91;5036835;28;20040;-78
2021/01/05 06:04:45;;;;;;;7.57;4.10;;;;;;;10.88;52.89;93244.41;5050065;28;20028;-79
2021/01/05 06:07:12;;;;;;;3.33;2.72;;;;;;;10.78;52.38;93240.16;5047654;28;20045;-80
2021/01/05 06:09:37;;;;;;;8.35;5.00;;;;;;;10.75;53.24;93238.09;5044634;28;20077;-79
2021/01/05 06:12:05;;;;;;;5.40;3.70;;;;;;;10.74;53.11;93236.56;5026052;28;20138;-79
2021/01/05 06:14:31;;;;;;;4.38;3.28;;;;;;;10.79;53.33;93246.22;5028006;28;20037;-82
2021/01/05 06:16:56;;;;;;;3.70;3.28;;;;;;;10.84;52.82;93248.75;5030149;28;20044;-77
2021/01/05 06:19:22;;;;;;;6.15;3.95;;;;;;;10.82;52.69;93251.69;5047729;28;20485;-77
2021/01/05 06:21:47;;;;;;;4.15;3.08;;;;;;;10.80;52.52;93243.28;5052462;28;20101;-80
2021/01/05 06:24:13;;;;;;;3.83;3.20;;;;;;;10.89;51.67;93250.47;5049176;28;20513;-80
2021/01/05 06:26:38;;;;;;;3.33;2.92;;;;;;;10.83;51.92;93247.19;5041914;28;21360;-80
2021/01/05 06:29:05;;;;;;;4.28;3.42;;;;;;;10.91;52.01;93258.88;5027987;28;20478;-78
2021/01/05 06:31:30;;;;;;;4.80;3.35;;;;;;;10.88;51.43;93255.00;5050081;28;20066;-79
2021/01/05 06:33:56;;;;;;;6.82;5.00;;;;;;;10.86;51.65;93252.63;5045093;28;20990;-79
2021/01/05 06:36:21;;;;;;;4.07;3.60;;;;;;;11.04;51.37;93271.25;5047412;28;20063;-78
2021/01/05 06:38:47;;;;;;;5.47;3.97;;;;;;;11.00;51.08;93263.13;5044465;28;20041;-78
2021/01/05 06:41:13;;;;;;;4.38;3.83;;;;;;;10.99;50.74;93261.59;5048399;28;20037;-78
2021/01/05 06:43:38;;;;;;;3.67;3.38;;;;;;;10.94;50.70;93276.78;5048268;28;20044;-78
2021/01/05 06:46:03;;;;;;;3.90;3.50;;;;;;;10.97;50.50;93276.19;5047515;28;20048;-79
2021/01/05 06:48:29;;;;;;;3.88;3.40;;;;;;;10.93;50.72;93285.81;5046713;28;20522;-78
2021/01/05 06:50:54;;;;;;;3.50;3.20;;;;;;;10.78;50.68;93263.16;5048704;28;20045;-78
2021/01/05 06:53:20;;;;;;;5.47;4.35;;;;;;;10.96;50.73;93287.81;5049074;28;20067;-78
2021/01/05 06:55:45;;;;;;;5.00;3.58;;;;;;;10.89;50.85;93274.28;5045797;28;20402;-80
2021/01/05 06:58:11;;;;;;;3.85;3.08;;;;;;;10.95;50.40;93291.53;5048410;28;20040;-79
2021/01/05 07:00:36;;;;;;;3.45;3.13;;;;;;;10.96;50.25;93303.69;5044640;28;20040;-79
2021/01/05 07:03:01;;;;;;;3.88;3.10;;;;;;;10.90;50.47;93283.78;5043693;28;20051;-79
2021/01/05 07:05:27;;;;;;;5.03;3.55;;;;;;;10.92;50.63;93277.09;5045885;28;20072;-79
2021/01/05 07:07:53;;;;;;;5.22;3.47;;;;;;;11.01;50.17;93271.84;5047322;28;20485;-82
2021/01/05 07:10:20;;;;;;;7.18;4.90;;;;;;;11.08;50.71;93282.78;5052446;28;20023;-78
2021/01/05 07:12:46;;;;;;;5.20;4.05;;;;;;;11.13;50.02;93285.28;5044082;28;20036;-78
2021/01/05 07:15:14;;;;;;;5.38;4.32;;;;;;;11.12;49.44;93281.06;5047544;28;20081;-81
2021/01/05 07:17:40;;;;;;;6.20;4.30;;;;;;;11.16;49.11;93292.59;5044006;28;20032;-79
2021/01/05 07:20:07;;;;;;;5.88;3.78;;;;;;;11.16;49.00;93289.97;5041156;28;20483;-78
2021/01/05 07:22:33;;;;;;;6.13;3.65;;;;;;;11.29;49.14;93291.72;5044496;28;20528;-80
2021/01/05 07:24:58;;;;;;;8.25;4.63;;;;;;;11.30;48.64;93295.94;5043872;28;20556;-80
2021/01/05 07:27:24;;;;;;;5.38;3.75;;;;;;;11.35;48.69;93305.59;5043591;28;20123;-79
2021/01/05 07:29:49;;;;;;;6.00;4.03;;;;;;;11.36;48.01;93299.22;5045125;28;20531;-78
2021/01/05 07:32:15;;;;;;;3.80;3.28;;;;;;;11.36;47.65;93305.31;5043331;28;20490;-80
2021/01/05 07:34:41;;;;;;;7.78;4.45;;;;;;;11.27;47.44;93301.84;5044529;28;20028;-79
2021/01/05 07:37:22;;;;;;;5.15;3.78;;;;;;;11.30;47.46;93303.88;5007855;28;20076;-78
2021/01/05 07:39:48;;;;;;;5.03;3.50;;;;;;;11.36;46.69;93300.00;5023373;28;20045;-78
2021/01/05 07:42:26;;;;;;;8.40;5.57;;;;;;;11.47;47.14;93309.25;5026621;28;20909;-77
2021/01/05 07:44:56;;;;;;;5.22;4.30;;;;;;;11.48;47.25;93317.97;5022627;28;20105;-80
2021/01/05 07:47:24;;;;;;;3.35;2.90;;;;;;;11.40;46.92;93316.06;5024371;28;20036;-80
2021/01/05 07:49:50;;;;;;;6.82;3.70;;;;;;;11.45;46.99;93314.06;5025406;28;20074;-75
2021/01/05 07:52:23;;;;;;;5.80;4.18;;;;;;;11.44;46.99;93320.44;5025528;28;20025;-76
2021/01/05 07:54:49;;;;;;;6.97;4.25;;;;;;;11.42;46.86;93312.03;5024733;28;20049;-78
2021/01/05 07:57:15;;;;;;;9.45;4.72;;;;;;;11.40;47.04;93311.53;5029401;28;20064;-80
2021/01/05 07:59:41;;;;;;;3.08;2.88;;;;;;;11.37;46.80;93322.75;5034199;28;20056;-78
2021/01/05 08:02:08;;;;;;;7.45;5.20;;;;;;;11.42;46.25;93316.53;5046492;28;20112;-76
2021/01/05 08:04:34;;;;;;;8.77;5.35;;;;;;;11.35;46.60;93327.56;5048038;28;20044;-75
2021/01/05 08:06:59;;;;;;;9.10;4.90;;;;;;;11.48;47.32;93326.69;5029768;28;20466;-76
2021/01/05 08:09:25;;;;;;;6.32;3.90;;;;;;;11.51;46.84;93331.38;5049407;28;20033;-76
2021/01/05 08:11:50;;;;;;;7.55;3.08;;;;;;;11.48;46.46;93317.97;5042587;28;20040;-75
2021/01/05 08:14:16;;;;;;;4.75;2.92;;;;;;;11.51;46.48;93339.31;5047438;28;20039;-78
2021/01/05 08:16:41;;;;;;;4.53;3.45;;;;;;;11.60;46.47;93329.53;5046860;28;20477;-76
2021/01/05 08:19:06;;;;;;;10.45;6.25;;;;;;;11.71;46.44;93330.03;5045266;28;20109;-75
2021/01/05 08:21:32;;;;;;;4.20;3.22;;;;;;;11.69;45.88;93329.56;5048405;28;20044;-76
2021/01/05 08:23:57;;;;;;;3.78;2.60;;;;;;;11.78;46.14;93340.22;5045584;28;20094;-75
2021/01/05 08:26:24;;;;;;;3.88;2.50;;;;;;;11.98;45.44;93344.94;5037436;28;20185;-76
2021/01/05 08:28:49;;;;;;;2.95;2.40;;;;;;;12.08;44.63;93334.84;5043262;28;20029;-75
2021/01/05 08:31:15;;;;;;;2.65;2.45;;;;;;;12.31;44.85;93340.81;5045950;28;20563;-76
2021/01/05 08:33:41;;;;;;;3.70;2.55;;;;;;;12.46;43.85;93353.59;5028661;28;20476;-75
2021/01/05 08:36:10;;;;;;;6.70;3.25;;;;;;;12.64;44.14;93350.97;5039230;28;20045;-75
2021/01/05 08:38:35;;;;;;;2.95;2.65;;;;;;;12.71;44.13;93348.63;5040409;28;20063;-76
2021/01/05 08:41:01;;;;;;;2.83;2.50;;;;;;;12.92;43.58;93352.22;5040403;28;20556;-77
2021/01/05 08:43:26;;;;;;;4.15;2.80;;;;;;;13.01;42.42;93355.63;5037470;28;20043;-76
2021/01/05 08:45:52;;;;;;;4.72;2.95;;;;;;;13.05;42.19;93356.56;5043133;28;20659;-75
2021/01/05 08:48:17;;;;;;;2.80;2.53;;;;;;;13.20;42.58;93348.16;5041861;28;20048;-75
2021/01/05 08:50:43;;;;;;;2.95;2.72;;;;;;;13.43;41.38;93351.41;5042393;28;20056;-75
2021/01/05 08:53:11;;;;;;;2.20;2.10;;;;;;;13.57;41.40;93354.63;5039506;28;20048;-76
2021/01/05 08:55:39;;;;;;;2.72;2.35;;;;;;;13.75;41.44;93358.00;5043723;28;20032;-76
2021/01/05 08:58:05;;;;;;;2.55;2.03;;;;;;;13.92;40.23;93354.50;5042937;28;20040;-77
2021/01/05 09:00:31;;;;;;;3.00;2.22;;;;;;;13.80;39.79;93361.25;5040809;28;20036;-75
2021/01/05 09:02:56;;;;;;;2.28;2.08;;;;;;;13.91;39.00;93372.31;5043400;28;20567;-75
2021/01/05 09:05:23;;;;;;;2.40;2.10;;;;;;;13.85;39.70;93366.41;5037715;28;20040;-75
2021/01/05 09:07:49;;;;;;;4.30;3.58;;;;;;;13.93;39.81;93362.13;5038736;28;20448;-75
2021/01/05 09:10:18;;;;;;;2.80;2.10;;;;;;;14.02;39.52;93378.84;5040641;28;20063;-75
2021/01/05 09:12:43;;;;;;;4.25;2.03;;;;;;;14.08;40.29;93372.22;5041342;28;20036;-76
2021/01/05 09:15:14;;;;;;;2.60;2.28;;;;;;;14.16;40.80;93368.78;5045475;28;20049;-76
2021/01/05 09:17:48;;;;;;;4.43;2.40;;;;;;;14.24;39.96;93364.50;5037245;28;20393;-74
2021/01/05 09:20:19;;;;;;;3.75;2.70;;;;;;;14.36;38.77;93347.88;5060903;28;20032;-75
2021/01/05 09:22:45;;;;;;;11.48;6.65;;;;;;;14.49;39.33;93363.59;5057668;28;20055;-75
2021/01/05 09:25:11;;;;;;;3.65;2.60;;;;;;;14.56;39.62;93341.81;5047442;28;20033;-75
2021/01/05 09:27:37;;;;;;;3.88;2.70;;;;;;;14.63;38.09;93350.06;5047318;28;20528;-75
2021/01/05 09:30:08;;;;;;;3.10;2.10;;;;;;;14.61;37.35;93347.72;5046259;28;20037;-76
2021/01/05 09:32:35;;;;;;;3.28;1.85;;;;;;;14.60;37.77;93361.34;5042357;28;20083;-75
2021/01/05 09:35:01;;;;;;;2.47;1.77;;;;;;;14.63;37.30;93342.84;5046835;28;20037;-75
2021/01/05 09:37:26;;;;;;;2.00;1.80;;;;;;;14.72;37.03;93351.53;5045071;28;20567;-75
2021/01/05 09:39:52;;;;;;;3.80;1.83;;;;;;;14.89;37.64;93353.31;5047938;28;20559;-75
2021/01/05 09:42:17;;;;;;;3.00;2.25;;;;;;;15.04;37.64;93346.59;5025706;28;20528;-75
2021/01/05 09:44:43;;;;;;;2.85;1.60;;;;;;;15.24;38.41;93348.47;5044529;28;20054;-74
2021/01/05 09:47:08;;;;;;;2.78;2.10;;;;;;;14.99;36.29;93342.25;5036812;28;20494;-74
2021/01/05 09:49:34;;;;;;;4.47;1.75;;;;;;;15.05;37.68;93340.94;5031004;28;20025;-74
2021/01/05 09:52:01;;;;;;;2.80;1.30;;;;;;;15.14;36.18;93339.00;5045744;28;20036;-77
2021/01/05 09:54:27;;;;;;;2.33;1.75;;;;;;;15.11;35.65;93321.00;5033872;28;20052;-75
2021/01/05 09:56:54;;;;;;;2.67;1.60;;;;;;;15.14;35.94;93323.03;5045231;28;20110;-74
2021/01/05 09:59:20;;;;;;;3.63;1.90;;;;;;;15.11;35.80;93329.00;5047154;28;20117;-75
2021/01/05 10:01:46;;;;;;;1.50;1.30;;;;;;;15.17;35.53;93330.34;5048679;28;20039;-75
2021/01/05 10:04:12;;;;;;;2.00;1.60;;;;;;;15.09;35.13;93336.53;5042703;28;20044;-76
2021/01/05 10:06:38;;;;;;;6.15;1.75;;;;;;;15.16;36.22;93326.13;5044324;28;20052;-74
2021/01/05 10:09:08;;;;;;;1.42;1.30;;;;;;;15.16;35.47;93330.66;5048992;28;20087;-76
2021/01/05 10:11:47;;;;;;;1.40;1.30;;;;;;;15.09;35.71;93336.53;5043029;28;20055;-76
2021/01/05 10:14:16;;;;;;;1.50;1.38;;;;;;;15.07;35.68;93333.41;5050028;28;20048;-75
2021/01/05 10:16:41;;;;;;;1.40;1.30;;;;;;;15.02;35.81;93324.84;5045893;28;20032;-74
2021/01/05 10:19:07;;;;;;;2.30;1.75;;;;;;;15.17;36.57;93329.56;5041760;28;20048;-75
2021/01/05 10:21:37;;;;;;;2.65;1.00;;;;;;;15.11;36.35;93336.19;5043694;28;20445;-74
2021/01/05 10:24:04;;;;;;;2.38;1.42;;;;;;;15.21;36.61;93340.34;5042842;28;20047;-75
2021/01/05 10:26:30;;;;;;;4.93;3.00;;;;;;;15.38;36.64;93348.16;5041898;28;20079;-74
2021/01/05 10:28:56;;;;;;;2.20;1.40;;;;;;;15.32;36.03;93344.16;5047120;28;20033;-75
2021/01/05 10:31:21;;;;;;;4.78;1.92;;;;;;;15.42;37.23;93341.84;5030966;28;20468;-75
2021/01/05 10:33:47;;;;;;;1.55;1.45;;;;;;;15.57;37.37;93340.47;5040890;28;21146;-74
2021/01/05 10:36:20;;;;;;;2.75;1.30;;;;;;;15.71;36.49;93348.16;5048523;28;20048;-74
2021/01/05 10:38:48;;;;;;;2.25;1.05;;;;;;;15.55;34.80;93340.78;5044764;28;20036;-76
2021/01/05 10:41:17;;;;;;;2.33;1.67;;;;;;;15.45;36.55;93340.41;5048603;28;20041;-74
2021/01/05 10:43:44;;;;;;;2.90;1.20;;;;;;;15.56;35.89;93344.25;5043969;28;20074;-74
2021/01/05 10:46:11;;;;;;;2.42;1.00;;;;;;;15.56;34.94;93350.34;5045126;28;20508;-74
2021/01/05 10:48:36;;;;;;;1.58;1.20;;;;;;;15.76;35.26;93358.59;5045684;28;20513;-75
2021/01/05 10:51:03;;;;;;;2.45;1.30;;;;;;;15.78;35.20;93362.50;5045178;28;20040;-74
2021/01/05 10:53:30;;;;;;;2.30;1.52;;;;;;;15.88;35.69;93366.63;5041736;28;20084;-76
2021/01/05 10:55:56;;;;;;;2.75;1.67;;;;;;;15.96;35.23;93371.84;5049416;28;21129;-76
2021/01/05 10:58:21;;;;;;;1.33;1.15;;;;;;;16.06;34.86;93375.97;5030203;28;20677;-76
2021/01/05 11:00:47;;;;;;;2.35;1.20;;;;;;;16.02;34.29;93367.84;5047209;28;20687;-74
2021/01/05 11:03:13;;;;;;;1.00;0.82;;;;;;;16.04;34.35;93370.94;5047157;28;20060;-74
2021/01/05 11:05:38;;;;;;;4.15;1.80;;;;;;;16.17;34.34;93362.97;5042820;28;20040;-74
2021/01/05 11:08:04;;;;;;;1.63;0.98;;;;;;;16.25;33.91;93370.06;5045768;28;20287;-75
2021/01/05 11:10:29;;;;;;;1.05;0.90;;;;;;;16.35;33.13;93359.75;5045071;28;20025;-74
2021/01/05 11:12:58;;;;;;;1.20;1.10;;;;;;;16.33;33.88;93361.94;5044998;28;20040;-74
2021/01/05 11:15:24;;;;;;;1.98;1.10;;;;;;;16.27;33.69;93378.53;5023466;28;20425;-75
2021/01/05 11:17:49;;;;;;;46.55;37.15;;;;;;;16.30;34.51;93380.50;5024434;28;20612;-74
2021/01/05 11:20:16;;;;;;;7.40;5.47;;;;;;;16.42;34.87;93391.16;5029221;28;20055;-74
2021/01/05 11:22:42;;;;;;;3.15;1.40;;;;;;;16.44;33.31;93378.28;5043563;28;20424;-75
2021/01/05 11:25:12;;;;;;;4.13;3.83;;;;;;;16.56;34.55;93374.84;5044261;28;20052;-74
2021/01/05 11:27:38;;;;;;;1.70;1.40;;;;;;;16.69;34.68;93376.41;5025367;28;20037;-75
2021/01/05 11:30:05;;;;;;;3.00;2.22;;;;;;;16.75;34.75;93367.06;5045408;28;20533;-75
2021/01/05 11:32:30;;;;;;;3.28;2.90;;;;;;;16.72;33.72;93362.38;5029648;28;20500;-74
2021/01/05 11:34:55;;;;;;;2.15;1.75;;;;;;;16.58;34.75;93360.06;5046066;28;20154;-74
2021/01/05 11:37:22;;;;;;;1.42;1.20;;;;;;;16.43;34.77;93366.06;5047637;28;20552;-76
2021/01/05 11:39:49;;;;;;;2.67;1.85;;;;;;;16.46;35.85;93362.75;5044026;28;20155;-73
2021/01/05 11:42:21;;;;;;;1.70;1.60;;;;;;;16.56;35.50;93380.19;5045653;28;20048;-74
2021/01/05 11:44:47;;;;;;;1.05;0.95;;;;;;;16.52;34.58;93373.97;5044636;28;20099;-74
2021/01/05 11:47:15;;;;;;;1.35;1.10;;;;;;;16.38;34.57;93364.41;5050198;28;20508;-74
2021/01/05 11:49:41;;;;;;;2.83;2.15;;;;;;;16.42;34.64;93362.59;5046193;28;20020;-75